Airfield :







YOU CAN JOIN US ON...

 
LOGIN :

Register | Disclaimer

   EN    FR    IT 

 









Legend :    VFR   Marginal VFR   IFR   Intensive IFR   Very Intensive IFR
Visi :
Ceiling :
>= 8 km
>= 3000ft
5 to 8 km
1000 to 3000 ft
1500m to 5 km
500 to 1000 ft
800 to 1500m
200 to 500 ft
< 800m
< 200 ft
Symbols :   Thunderstorms  Fog  Heavy snow  Heavy precipitations  Wind > 20 kt







- Airport Elevation : 322 ft


KDAW - Skyhaven

CURRENT METAR :
  • 231451Z AUTO 30024G34KT 10SM CLR 03/M04 A2945 RMK AO2 PK WND 29034/1451 SLP971 T00331044 51043

EXPIRED METARs :
  • 231351Z AUTO 30018G34KT 10SM CLR 02/M05 A2942 RMK AO2 PK WND 30037/1309 SLP963 T00221050
  • 231251Z AUTO 30021G33KT 10SM SCT110 02/M04 A2937 RMK AO2 PK WND 30033/1244 SLP946 T00171044

TAF N/A
KZBW FIR / North America



MET'MAP, your aeronautical weather chart ! - Copyright ORBIFLY December 2007 - Disclaimer

ORBIFLY MET'MAP TEAM :

Programming & Development : Alexandra Zaïnal
Concept & Development : Baudouin d'Aumeries
Co-Development & Prog : Marc-Olivier Méhu
Technical & hardware support : Manuel Goepfert

Contact : metmap@orbifly.com




SOURCES & CREDITS :

   NOAA